createdAt,value
2022-09-22T00:02:59.463Z,9.40
2022-09-22T00:06:07.494Z,9.30
2022-09-22T00:09:13.913Z,9.40
2022-09-22T00:12:16.986Z,9.30
2022-09-22T00:15:20.151Z,9.30
2022-09-22T00:18:25.341Z,9.30
2022-09-22T00:21:30.902Z,9.20
2022-09-22T00:24:34.842Z,9.20
2022-09-22T00:27:37.921Z,9.20
2022-09-22T00:30:43.100Z,9.10
2022-09-22T00:33:48.227Z,9.10
2022-09-22T00:36:51.662Z,9.00
2022-09-22T00:39:54.798Z,9.00
2022-09-22T00:43:13.813Z,9.00
2022-09-22T00:46:19.898Z,8.90
2022-09-22T00:49:35.388Z,8.90
2022-09-22T00:52:43.255Z,8.90
2022-09-22T00:55:50.508Z,8.90
2022-09-22T00:58:59.177Z,8.80
2022-09-22T01:02:02.318Z,8.70
2022-09-22T01:05:08.626Z,8.70
2022-09-22T01:08:13.187Z,8.60
2022-09-22T01:11:20.763Z,8.60
2022-09-22T01:14:34.252Z,8.60
2022-09-22T01:17:45.754Z,8.60
2022-09-22T01:21:18.671Z,8.60
2022-09-22T01:24:54.876Z,8.50
2022-09-22T01:28:22.734Z,8.50
2022-09-22T01:31:31.576Z,8.50
2022-09-22T01:34:39.616Z,8.40
2022-09-22T01:37:49.666Z,8.40
2022-09-22T01:40:56.873Z,8.40
2022-09-22T01:44:04.579Z,8.40
2022-09-22T01:47:13.724Z,8.40
2022-09-22T01:50:24.216Z,8.40
2022-09-22T01:53:34.037Z,8.40
2022-09-22T01:56:38.628Z,8.30
2022-09-22T01:59:44.856Z,8.30
2022-09-22T02:02:55.195Z,8.20
2022-09-22T02:06:02.645Z,8.20
2022-09-22T02:09:07.973Z,8.20
2022-09-22T02:12:11.141Z,8.20
2022-09-22T02:15:28.504Z,8.20
2022-09-22T02:18:37.657Z,8.20
2022-09-22T02:21:41.966Z,8.20
2022-09-22T02:24:47.661Z,8.10
2022-09-22T02:27:55.136Z,8.10
2022-09-22T02:31:19.037Z,8.10
2022-09-22T02:34:24.229Z,8.00
2022-09-22T02:37:36.823Z,8.00
2022-09-22T02:40:46.960Z,7.90
2022-09-22T02:43:53.632Z,8.00
2022-09-22T02:47:02.406Z,7.90
2022-09-22T02:50:10.905Z,7.90
2022-09-22T02:53:15.747Z,7.90
2022-09-22T02:56:18.864Z,7.90
2022-09-22T02:59:21.951Z,7.80
2022-09-22T03:02:25.168Z,7.80
2022-09-22T03:05:29.686Z,7.80
2022-09-22T03:08:32.815Z,7.80
2022-09-22T03:11:35.894Z,7.80
2022-09-22T03:14:38.987Z,7.80
2022-09-22T03:17:42.744Z,7.80
2022-09-22T03:20:47.310Z,7.80
2022-09-22T03:23:50.492Z,7.80
2022-09-22T03:26:53.575Z,7.80
2022-09-22T03:29:56.654Z,7.70
2022-09-22T03:32:59.858Z,7.70
2022-09-22T03:36:04.744Z,7.60
2022-09-22T03:39:07.971Z,7.60
2022-09-22T03:42:11.265Z,7.50
2022-09-22T03:45:15.083Z,7.50
2022-09-22T03:48:18.321Z,7.60
2022-09-22T03:51:22.757Z,7.60
2022-09-22T03:54:26.368Z,7.50
2022-09-22T03:57:29.497Z,7.50
2022-09-22T04:00:32.548Z,7.50
2022-09-22T04:03:36.152Z,7.50
2022-09-22T04:06:40.919Z,7.50
2022-09-22T04:09:44.014Z,7.50
2022-09-22T04:12:47.140Z,7.50
2022-09-22T04:15:50.535Z,7.50
2022-09-22T04:18:53.690Z,7.60
2022-09-22T04:21:58.096Z,7.60
2022-09-22T04:25:01.525Z,7.60
2022-09-22T04:28:05.683Z,7.60
2022-09-22T04:31:09.053Z,7.60
2022-09-22T04:34:12.144Z,7.70
2022-09-22T04:37:16.828Z,7.70
2022-09-22T04:40:20.210Z,7.70
2022-09-22T04:43:23.340Z,7.70
2022-09-22T04:46:27.356Z,7.70
2022-09-22T04:49:31.011Z,7.70
2022-09-22T04:52:35.485Z,7.80
2022-09-22T04:55:38.569Z,7.80
2022-09-22T04:58:41.669Z,7.90
2022-09-22T05:01:44.959Z,7.80
2022-09-22T05:04:48.076Z,7.80
2022-09-22T05:07:55.011Z,7.80
2022-09-22T05:10:58.190Z,7.80
2022-09-22T05:14:02.214Z,7.90
2022-09-22T05:17:06.209Z,7.90
2022-09-22T05:20:10.912Z,7.90
2022-09-22T05:23:15.405Z,8.00
2022-09-22T05:26:18.477Z,8.10
2022-09-22T05:29:24.637Z,8.10
2022-09-22T05:32:30.833Z,8.30
2022-09-22T05:35:36.802Z,8.40
2022-09-22T05:38:41.802Z,8.60
2022-09-22T05:41:44.909Z,8.70
2022-09-22T05:44:48.018Z,8.80
2022-09-22T05:47:51.146Z,8.90
2022-09-22T05:50:54.219Z,8.90
2022-09-22T05:53:58.727Z,9.00
2022-09-22T05:57:01.802Z,9.10
2022-09-22T06:00:06.482Z,9.10
2022-09-22T06:03:10.429Z,9.20
2022-09-22T06:06:15.006Z,9.30
2022-09-22T06:09:19.662Z,9.30
2022-09-22T06:12:22.741Z,9.50
2022-09-22T06:15:26.018Z,9.60
2022-09-22T06:18:31.483Z,9.80
2022-09-22T06:21:35.101Z,9.90
2022-09-22T06:24:39.606Z,10.10
2022-09-22T06:27:44.015Z,10.20
2022-09-22T06:30:48.544Z,10.20
2022-09-22T06:33:51.804Z,10.20
2022-09-22T06:36:56.277Z,10.40
2022-09-22T06:40:00.766Z,10.70
2022-09-22T06:43:10.584Z,11.00
2022-09-22T06:46:13.965Z,11.50
2022-09-22T06:49:17.235Z,11.90
2022-09-22T06:52:20.334Z,12.10
2022-09-22T06:55:24.817Z,12.30
2022-09-22T06:58:29.079Z,13.20
2022-09-22T07:01:32.450Z,16.00
2022-09-22T07:04:35.744Z,19.10
2022-09-22T07:07:39.337Z,21.60
2022-09-22T07:10:43.830Z,24.10
2022-09-22T07:13:46.995Z,25.90
2022-09-22T07:16:52.539Z,27.40
2022-09-22T07:19:57.612Z,28.70
2022-09-22T07:23:00.983Z,29.70
2022-09-22T07:26:06.838Z,30.70
2022-09-22T07:29:13.528Z,31.60
2022-09-22T07:32:17.770Z,32.30
2022-09-22T07:35:20.964Z,33.10
2022-09-22T07:38:24.371Z,33.70
2022-09-22T07:41:30.338Z,34.20
2022-09-22T07:44:50.905Z,34.80
2022-09-22T07:48:11.445Z,35.20
2022-09-22T07:51:20.618Z,36.10
2022-09-22T07:54:24.165Z,37.10
2022-09-22T07:57:32.318Z,37.70
2022-09-22T08:00:36.523Z,38.00
2022-09-22T08:03:39.887Z,38.30
2022-09-22T08:06:43.548Z,39.00
2022-09-22T08:09:46.635Z,39.80
2022-09-22T08:12:53.435Z,40.50
2022-09-22T08:15:56.568Z,40.80
2022-09-22T08:19:02.406Z,40.70
2022-09-22T08:22:05.517Z,41.00
2022-09-22T08:25:12.398Z,41.00
2022-09-22T08:28:16.927Z,41.40
2022-09-22T08:31:21.239Z,42.10
2022-09-22T08:34:24.432Z,42.60
2022-09-22T08:37:28.433Z,42.70
2022-09-22T08:40:31.795Z,42.90
2022-09-22T08:43:36.584Z,43.40
2022-09-22T08:46:41.688Z,43.90
2022-09-22T08:50:06.791Z,44.40
2022-09-22T08:53:15.172Z,44.90
2022-09-22T08:56:29.240Z,45.60
2022-09-22T08:59:39.090Z,45.20
2022-09-22T09:02:45.586Z,44.60
2022-09-22T09:06:02.211Z,43.80
2022-09-22T09:09:28.065Z,44.80
2022-09-22T09:12:59.992Z,44.90
2022-09-22T09:16:18.530Z,44.70
2022-09-22T09:19:29.031Z,43.90
2022-09-22T09:22:38.824Z,43.60
2022-09-22T09:25:43.464Z,44.20
2022-09-22T09:28:50.401Z,45.50
2022-09-22T09:31:57.484Z,44.40
2022-09-22T09:35:00.841Z,44.40
2022-09-22T09:38:09.278Z,45.70
2022-09-22T09:41:18.010Z,44.30
2022-09-22T09:44:29.522Z,45.80
2022-09-22T09:47:59.044Z,45.80
2022-09-22T09:51:05.261Z,42.60
2022-09-22T09:54:13.077Z,39.80
2022-09-22T09:57:20.484Z,37.40
2022-09-22T10:00:32.391Z,35.00
2022-09-22T10:03:43.621Z,34.70
2022-09-22T10:06:47.269Z,39.30
2022-09-22T10:09:51.828Z,42.90
2022-09-22T10:12:54.906Z,42.70
2022-09-22T10:16:21.902Z,44.00
2022-09-22T10:19:30.066Z,45.20
2022-09-22T10:22:35.492Z,47.00
2022-09-22T10:25:42.850Z,44.90
2022-09-22T10:28:50.816Z,42.90
2022-09-22T10:32:06.200Z,38.40
2022-09-22T10:35:28.759Z,33.80
2022-09-22T10:38:35.520Z,32.70
2022-09-22T10:41:39.489Z,32.60
2022-09-22T10:44:48.242Z,30.90
2022-09-22T10:47:59.071Z,29.60
2022-09-22T10:51:12.645Z,27.70
2022-09-22T10:54:30.091Z,27.10
2022-09-22T10:57:47.170Z,26.60
2022-09-22T11:00:50.505Z,25.40
2022-09-22T11:04:28.457Z,25.00
2022-09-22T11:08:04.776Z,24.60
2022-09-22T11:11:35.947Z,24.20
2022-09-22T11:15:04.662Z,23.60
2022-09-22T11:18:29.413Z,23.60
2022-09-22T11:21:45.482Z,23.00
2022-09-22T11:25:03.089Z,22.80
2022-09-22T11:28:22.127Z,22.60
2022-09-22T11:31:39.193Z,22.50
2022-09-22T11:35:18.453Z,22.40
2022-09-22T11:38:44.214Z,22.00
2022-09-22T11:42:00.193Z,21.80
2022-09-22T11:45:16.184Z,23.10
2022-09-22T11:48:33.048Z,24.10
2022-09-22T11:51:46.847Z,25.00
2022-09-22T11:55:19.101Z,27.70
2022-09-22T11:58:28.301Z,30.50
2022-09-22T12:01:37.357Z,32.60
2022-09-22T12:04:47.179Z,32.50
2022-09-22T12:07:56.194Z,32.20
2022-09-22T12:11:00.118Z,33.10
2022-09-22T12:14:05.676Z,33.10
2022-09-22T12:17:13.898Z,31.50
2022-09-22T12:20:34.988Z,29.90
2022-09-22T12:23:41.564Z,27.70
2022-09-22T12:26:47.335Z,26.30
2022-09-22T12:30:00.937Z,25.10
2022-09-22T12:33:05.211Z,24.40
2022-09-22T12:36:08.930Z,23.60
2022-09-22T12:39:18.173Z,23.30
2022-09-22T12:42:23.970Z,24.00
2022-09-22T12:45:33.838Z,24.60
2022-09-22T12:48:38.308Z,24.70
2022-09-22T12:51:41.447Z,24.60
2022-09-22T12:54:46.871Z,24.30
2022-09-22T12:57:51.998Z,25.40
2022-09-22T13:00:57.715Z,26.80
2022-09-22T13:04:18.891Z,28.60
2022-09-22T13:07:36.641Z,28.70
2022-09-22T13:11:01.546Z,27.80
2022-09-22T13:14:24.670Z,28.70
2022-09-22T13:17:44.831Z,29.30
2022-09-22T13:20:48.248Z,29.90
2022-09-22T13:23:59.848Z,29.20
2022-09-22T13:27:06.725Z,27.70
2022-09-22T13:30:15.288Z,26.50
2022-09-22T13:33:22.383Z,25.40
2022-09-22T13:36:25.512Z,24.70
2022-09-22T13:39:31.943Z,24.00
2022-09-22T13:42:35.300Z,23.40
2022-09-22T13:45:40.419Z,22.60
2022-09-22T13:48:45.015Z,21.70
2022-09-22T13:51:52.117Z,20.80
2022-09-22T13:54:59.710Z,20.10
2022-09-22T13:58:04.119Z,19.60
2022-09-22T14:01:15.673Z,19.30
2022-09-22T14:04:25.553Z,19.00
2022-09-22T14:07:31.365Z,18.80
2022-09-22T14:10:35.271Z,18.70
2022-09-22T14:13:44.150Z,18.70
2022-09-22T14:16:50.549Z,18.50
2022-09-22T14:19:58.961Z,18.50
2022-09-22T14:23:02.096Z,18.50
2022-09-22T14:26:33.458Z,18.40
2022-09-22T14:29:38.761Z,18.20
2022-09-22T14:32:48.400Z,18.10
2022-09-22T14:36:01.831Z,18.10
2022-09-22T14:39:10.308Z,18.10
2022-09-22T14:42:21.283Z,18.30
2022-09-22T14:45:27.344Z,18.30
2022-09-22T14:48:32.483Z,18.40
2022-09-22T14:51:37.324Z,18.50
2022-09-22T14:54:40.793Z,18.60
2022-09-22T14:57:47.360Z,18.70
2022-09-22T15:01:16.028Z,18.90
2022-09-22T15:04:23.137Z,19.00
2022-09-22T15:07:30.067Z,19.00
2022-09-22T15:10:36.087Z,18.60
2022-09-22T15:13:41.160Z,18.40
2022-09-22T15:16:44.433Z,18.10
2022-09-22T15:19:51.117Z,18.10
2022-09-22T15:22:56.275Z,17.90
2022-09-22T15:26:04.096Z,17.80
2022-09-22T15:29:07.201Z,17.80
2022-09-22T15:32:11.124Z,17.80
2022-09-22T15:35:15.629Z,17.60
2022-09-22T15:38:23.710Z,17.60
2022-09-22T15:41:27.531Z,17.40
2022-09-22T15:44:32.586Z,17.20
2022-09-22T15:47:35.756Z,17.00
2022-09-22T15:50:40.433Z,16.70
2022-09-22T15:53:45.529Z,16.60
2022-09-22T15:56:50.994Z,16.50
2022-09-22T15:59:54.089Z,16.30
2022-09-22T16:02:57.225Z,16.20
2022-09-22T16:06:04.425Z,16.10
2022-09-22T16:09:09.224Z,16.10
2022-09-22T16:12:15.634Z,16.10
2022-09-22T16:15:19.169Z,16.20
2022-09-22T16:18:22.382Z,16.20
2022-09-22T16:21:29.890Z,16.10
2022-09-22T16:24:34.353Z,16.00
2022-09-22T16:27:38.360Z,16.10
2022-09-22T16:30:41.490Z,16.00
2022-09-22T16:33:45.078Z,15.90
2022-09-22T16:36:48.220Z,15.70
2022-09-22T16:39:52.718Z,15.70
2022-09-22T16:42:55.917Z,15.70
2022-09-22T16:46:16.095Z,15.80
2022-09-22T16:49:20.440Z,15.80
2022-09-22T16:52:25.078Z,15.80
2022-09-22T16:55:29.529Z,15.80
2022-09-22T16:58:33.699Z,15.80
2022-09-22T17:01:38.484Z,15.90
2022-09-22T17:04:41.682Z,15.80
2022-09-22T17:07:47.232Z,15.80
2022-09-22T17:10:51.886Z,15.80
2022-09-22T17:13:55.693Z,15.70
2022-09-22T17:17:06.195Z,15.60
2022-09-22T17:20:10.352Z,15.50
2022-09-22T17:23:14.971Z,15.40
2022-09-22T17:26:20.566Z,15.30
2022-09-22T17:29:25.613Z,15.30
2022-09-22T17:32:29.333Z,15.10
2022-09-22T17:35:32.422Z,15.10
2022-09-22T17:38:40.184Z,15.00
2022-09-22T17:41:47.141Z,14.90
2022-09-22T17:44:50.304Z,14.80
2022-09-22T17:48:10.837Z,14.80
2022-09-22T17:51:53.167Z,14.80
2022-09-22T17:55:09.105Z,14.70
2022-09-22T17:58:13.589Z,14.60
2022-09-22T18:01:16.881Z,14.50
2022-09-22T18:04:19.990Z,14.40
2022-09-22T18:07:24.598Z,14.50
2022-09-22T18:10:32.278Z,14.50
2022-09-22T18:13:40.230Z,14.50
2022-09-22T18:16:43.816Z,14.50
2022-09-22T18:19:47.293Z,14.50
2022-09-22T18:22:50.513Z,14.40
2022-09-22T18:25:53.678Z,14.50
2022-09-22T18:28:58.279Z,14.50
2022-09-22T18:32:02.341Z,14.40
2022-09-22T18:35:06.921Z,14.30
2022-09-22T18:38:10.200Z,14.20
2022-09-22T18:41:15.862Z,14.10
2022-09-22T18:44:24.091Z,14.10
2022-09-22T18:47:27.233Z,14.10
2022-09-22T18:50:31.779Z,14.00
2022-09-22T18:53:35.025Z,14.00
2022-09-22T18:56:40.007Z,14.00
2022-09-22T18:59:44.758Z,13.90
2022-09-22T19:02:48.771Z,13.80
2022-09-22T19:05:51.918Z,13.70
2022-09-22T19:08:55.643Z,13.70
2022-09-22T19:11:59.244Z,13.60
2022-09-22T19:15:04.128Z,13.50
2022-09-22T19:18:09.983Z,13.50
2022-09-22T19:21:14.365Z,13.50
2022-09-22T19:24:17.630Z,13.50
2022-09-22T19:27:22.960Z,13.40
2022-09-22T19:30:30.855Z,13.40
2022-09-22T19:33:34.753Z,13.30
2022-09-22T19:36:38.058Z,13.20
2022-09-22T19:39:42.419Z,13.20
2022-09-22T19:42:45.715Z,13.10
2022-09-22T19:45:50.503Z,13.10
2022-09-22T19:48:53.911Z,13.00
2022-09-22T19:51:57.105Z,13.00
2022-09-22T19:55:00.298Z,12.90
2022-09-22T19:58:03.451Z,13.00
2022-09-22T20:01:10.349Z,12.90
2022-09-22T20:04:15.881Z,12.80
2022-09-22T20:07:19.389Z,12.70
2022-09-22T20:10:23.571Z,12.70
2022-09-22T20:13:43.136Z,12.60
2022-09-22T20:16:48.189Z,12.60
2022-09-22T20:19:51.277Z,12.50
2022-09-22T20:23:00.502Z,12.40
2022-09-22T20:26:03.643Z,12.30
2022-09-22T20:29:06.787Z,12.30
2022-09-22T20:32:11.191Z,12.30
2022-09-22T20:35:16.778Z,12.30
2022-09-22T20:38:20.446Z,12.20
2022-09-22T20:41:24.394Z,12.20
2022-09-22T20:44:27.525Z,12.10
2022-09-22T20:47:32.169Z,12.10
2022-09-22T20:50:35.367Z,12.00
2022-09-22T20:53:39.658Z,12.00
2022-09-22T20:56:43.113Z,12.00
2022-09-22T20:59:47.523Z,12.00
2022-09-22T21:02:53.593Z,11.90
2022-09-22T21:06:00.482Z,11.90
2022-09-22T21:09:20.954Z,11.90
2022-09-22T21:12:29.997Z,11.90
2022-09-22T21:15:34.154Z,11.80
2022-09-22T21:18:39.660Z,11.70
2022-09-22T21:21:42.755Z,11.60
2022-09-22T21:24:48.881Z,11.60
2022-09-22T21:27:52.334Z,11.50
2022-09-22T21:30:56.677Z,11.50
2022-09-22T21:34:01.293Z,11.40
2022-09-22T21:37:04.601Z,11.40
2022-09-22T21:40:09.422Z,11.40
2022-09-22T21:43:12.518Z,11.30
2022-09-22T21:46:17.541Z,11.30
2022-09-22T21:49:22.131Z,11.20
2022-09-22T21:52:25.267Z,11.20
2022-09-22T21:55:30.349Z,11.20
2022-09-22T21:58:36.033Z,11.20
2022-09-22T22:01:42.052Z,11.10
2022-09-22T22:04:47.449Z,11.10
2022-09-22T22:07:50.913Z,11.00
2022-09-22T22:11:02.828Z,11.10
2022-09-22T22:14:08.436Z,11.00
2022-09-22T22:17:11.496Z,11.00
2022-09-22T22:20:16.200Z,10.90
2022-09-22T22:23:19.506Z,11.00
2022-09-22T22:26:25.584Z,10.90
2022-09-22T22:29:31.572Z,10.90
2022-09-22T22:32:34.668Z,10.90
2022-09-22T22:35:39.152Z,10.90
2022-09-22T22:38:43.277Z,10.80
2022-09-22T22:41:46.594Z,10.70
2022-09-22T22:44:49.711Z,10.70
2022-09-22T22:47:52.840Z,10.60
2022-09-22T22:50:57.288Z,10.60
2022-09-22T22:54:00.522Z,10.60
2022-09-22T22:57:03.623Z,10.60
2022-09-22T23:00:07.754Z,10.50
2022-09-22T23:03:11.156Z,10.50
2022-09-22T23:06:18.095Z,10.50
2022-09-22T23:09:21.245Z,10.40
2022-09-22T23:12:24.529Z,10.40
2022-09-22T23:15:27.748Z,10.40
2022-09-22T23:18:32.052Z,10.30
2022-09-22T23:21:37.219Z,10.30
2022-09-22T23:24:40.319Z,10.30
2022-09-22T23:27:48.379Z,10.20
2022-09-22T23:30:58.152Z,10.20
2022-09-22T23:34:01.382Z,10.20
2022-09-22T23:37:05.958Z,10.10
2022-09-22T23:40:10.648Z,10.10
2022-09-22T23:43:13.973Z,10.10
2022-09-22T23:46:17.588Z,10.00
2022-09-22T23:49:20.817Z,9.90
2022-09-22T23:52:25.374Z,9.90
2022-09-22T23:55:28.677Z,9.90
2022-09-22T23:58:32.619Z,9.80
